sensor_id;sensor_type;location;lat;lon;timestamp;temperature;humidity
25718;DHT22;13574;52.040;5.692;2022-09-09T00:03:56;19.90;99.90
25718;DHT22;13574;52.040;5.692;2022-09-09T00:09:21;20.00;99.90
25718;DHT22;13574;52.040;5.692;2022-09-09T00:11:51;20.00;99.90
25718;DHT22;13574;52.040;5.692;2022-09-09T00:14:42;20.10;99.90
25718;DHT22;13574;52.040;5.692;2022-09-09T00:17:18;20.00;99.90
25718;DHT22;13574;52.040;5.692;2022-09-09T00:20:03;19.90;99.90
25718;DHT22;13574;52.040;5.692;2022-09-09T00:22:32;19.90;99.90
25718;DHT22;13574;52.040;5.692;2022-09-09T00:25:10;19.90;99.90
25718;DHT22;13574;52.040;5.692;2022-09-09T00:27:48;19.90;99.90
25718;DHT22;13574;52.040;5.692;2022-09-09T00:32:40;19.80;99.90
25718;DHT22;13574;52.040;5.692;2022-09-09T00:35:35;19.70;99.90
25718;DHT22;13574;52.040;5.692;2022-09-09T00:38:06;19.60;99.90
25718;DHT22;13574;52.040;5.692;2022-09-09T00:40:48;19.60;99.90
25718;DHT22;13574;52.040;5.692;2022-09-09T00:43:36;19.60;99.90
25718;DHT22;13574;52.040;5.692;2022-09-09T00:49:09;19.70;99.90
25718;DHT22;13574;52.040;5.692;2022-09-09T00:54:30;19.50;99.90
25718;DHT22;13574;52.040;5.692;2022-09-09T01:00:24;19.40;99.90
25718;DHT22;13574;52.040;5.692;2022-09-09T01:05:46;19.60;99.90
25718;DHT22;13574;52.040;5.692;2022-09-09T01:11:00;19.70;99.90
25718;DHT22;13574;52.040;5.692;2022-09-09T01:13:33;19.70;99.90
25718;DHT22;13574;52.040;5.692;2022-09-09T01:16:01;19.70;99.90
25718;DHT22;13574;52.040;5.692;2022-09-09T01:18:52;19.70;99.90
25718;DHT22;13574;52.040;5.692;2022-09-09T01:21:42;19.70;99.90
25718;DHT22;13574;52.040;5.692;2022-09-09T01:24:41;19.70;99.90
25718;DHT22;13574;52.040;5.692;2022-09-09T01:27:14;19.70;99.90
25718;DHT22;13574;52.040;5.692;2022-09-09T01:29:42;19.70;99.90
25718;DHT22;13574;52.040;5.692;2022-09-09T01:32:37;19.60;99.90
25718;DHT22;13574;52.040;5.692;2022-09-09T01:35:05;19.50;99.90
25718;DHT22;13574;52.040;5.692;2022-09-09T01:37:35;19.50;99.90
25718;DHT22;13574;52.040;5.692;2022-09-09T01:40:01;19.50;99.90
25718;DHT22;13574;52.040;5.692;2022-09-09T01:42:27;19.30;99.90
25718;DHT22;13574;52.040;5.692;2022-09-09T01:44:52;19.40;99.90
25718;DHT22;13574;52.040;5.692;2022-09-09T01:47:19;19.50;99.90
25718;DHT22;13574;52.040;5.692;2022-09-09T01:49:45;19.40;99.90
25718;DHT22;13574;52.040;5.692;2022-09-09T01:52:11;19.30;99.90
25718;DHT22;13574;52.040;5.692;2022-09-09T01:54:36;19.40;99.90
25718;DHT22;13574;52.040;5.692;2022-09-09T01:57:23;19.40;99.90
25718;DHT22;13574;52.040;5.692;2022-09-09T02:02:46;19.40;99.90
25718;DHT22;13574;52.040;5.692;2022-09-09T02:05:39;19.20;99.90
25718;DHT22;13574;52.040;5.692;2022-09-09T02:08:11;19.30;99.90
25718;DHT22;13574;52.040;5.692;2022-09-09T02:13:32;19.50;99.90
25718;DHT22;13574;52.040;5.692;2022-09-09T02:18:55;19.50;99.90
25718;DHT22;13574;52.040;5.692;2022-09-09T02:21:23;19.50;99.90
25718;DHT22;13574;52.040;5.692;2022-09-09T02:23:50;19.30;99.90
25718;DHT22;13574;52.040;5.692;2022-09-09T02:26:19;19.40;99.90
25718;DHT22;13574;52.040;5.692;2022-09-09T02:28:50;19.50;99.90
25718;DHT22;13574;52.040;5.692;2022-09-09T02:31:18;19.30;99.90
25718;DHT22;13574;52.040;5.692;2022-09-09T02:33:51;19.10;99.90
25718;DHT22;13574;52.040;5.692;2022-09-09T02:36:19;19.30;99.90
25718;DHT22;13574;52.040;5.692;2022-09-09T02:38:47;19.40;99.90
25718;DHT22;13574;52.040;5.692;2022-09-09T02:41:26;19.30;99.90
25718;DHT22;13574;52.040;5.692;2022-09-09T02:43:53;19.50;99.90
25718;DHT22;13574;52.040;5.692;2022-09-09T02:49:09;19.60;99.90
25718;DHT22;13574;52.040;5.692;2022-09-09T02:51:53;19.50;99.90
25718;DHT22;13574;52.040;5.692;2022-09-09T02:54:27;19.60;99.90
25718;DHT22;13574;52.040;5.692;2022-09-09T02:56:58;19.60;99.90
25718;DHT22;13574;52.040;5.692;2022-09-09T02:59:26;19.50;99.90
25718;DHT22;13574;52.040;5.692;2022-09-09T03:01:52;19.50;99.90
25718;DHT22;13574;52.040;5.692;2022-09-09T03:04:18;19.50;99.90
25718;DHT22;13574;52.040;5.692;2022-09-09T03:06:44;19.50;99.90
25718;DHT22;13574;52.040;5.692;2022-09-09T03:09:12;19.50;99.90
25718;DHT22;13574;52.040;5.692;2022-09-09T03:11:40;19.50;99.90
25718;DHT22;13574;52.040;5.692;2022-09-09T03:14:09;19.50;99.90
25718;DHT22;13574;52.040;5.692;2022-09-09T03:16:37;19.60;99.90
25718;DHT22;13574;52.040;5.692;2022-09-09T03:19:02;19.50;99.90
25718;DHT22;13574;52.040;5.692;2022-09-09T03:21:29;19.60;99.90
25718;DHT22;13574;52.040;5.692;2022-09-09T03:23:55;19.60;99.90
25718;DHT22;13574;52.040;5.692;2022-09-09T03:26:21;19.50;99.90
25718;DHT22;13574;52.040;5.692;2022-09-09T03:28:47;19.40;99.90
25718;DHT22;13574;52.040;5.692;2022-09-09T03:31:12;19.40;99.90
25718;DHT22;13574;52.040;5.692;2022-09-09T03:33:38;19.40;99.90
25718;DHT22;13574;52.040;5.692;2022-09-09T03:36:05;19.40;99.90
25718;DHT22;13574;52.040;5.692;2022-09-09T03:38:31;19.30;99.90
25718;DHT22;13574;52.040;5.692;2022-09-09T03:40:57;19.30;99.90
25718;DHT22;13574;52.040;5.692;2022-09-09T03:43:25;19.30;99.90
25718;DHT22;13574;52.040;5.692;2022-09-09T03:45:51;19.30;99.90
25718;DHT22;13574;52.040;5.692;2022-09-09T03:48:18;19.30;99.90
25718;DHT22;13574;52.040;5.692;2022-09-09T03:50:48;19.40;99.90
25718;DHT22;13574;52.040;5.692;2022-09-09T03:53:15;19.20;99.90
25718;DHT22;13574;52.040;5.692;2022-09-09T03:55:45;19.30;99.90
25718;DHT22;13574;52.040;5.692;2022-09-09T03:58:15;19.20;99.90
25718;DHT22;13574;52.040;5.692;2022-09-09T04:00:41;19.20;99.90
25718;DHT22;13574;52.040;5.692;2022-09-09T04:03:09;19.30;99.90
25718;DHT22;13574;52.040;5.692;2022-09-09T04:05:35;19.30;99.90
25718;DHT22;13574;52.040;5.692;2022-09-09T04:08:07;19.20;99.90
25718;DHT22;13574;52.040;5.692;2022-09-09T04:10:34;19.10;99.90
25718;DHT22;13574;52.040;5.692;2022-09-09T04:13:07;19.10;99.90
25718;DHT22;13574;52.040;5.692;2022-09-09T04:15:32;19.10;99.90
25718;DHT22;13574;52.040;5.692;2022-09-09T04:18:00;19.10;99.90
25718;DHT22;13574;52.040;5.692;2022-09-09T04:20:26;19.10;99.90
25718;DHT22;13574;52.040;5.692;2022-09-09T04:22:51;18.90;99.90
25718;DHT22;13574;52.040;5.692;2022-09-09T04:25:17;19.00;99.90
25718;DHT22;13574;52.040;5.692;2022-09-09T04:27:43;18.80;99.90
25718;DHT22;13574;52.040;5.692;2022-09-09T04:30:10;19.00;99.90
25718;DHT22;13574;52.040;5.692;2022-09-09T04:32:36;18.70;99.90
25718;DHT22;13574;52.040;5.692;2022-09-09T04:35:02;18.90;99.90
25718;DHT22;13574;52.040;5.692;2022-09-09T04:37:29;18.90;99.90
25718;DHT22;13574;52.040;5.692;2022-09-09T04:39:55;19.00;99.90
25718;DHT22;13574;52.040;5.692;2022-09-09T04:42:21;19.00;99.90
25718;DHT22;13574;52.040;5.692;2022-09-09T04:44:47;19.00;99.90
25718;DHT22;13574;52.040;5.692;2022-09-09T04:47:12;19.10;99.90
25718;DHT22;13574;52.040;5.692;2022-09-09T04:49:39;19.20;99.90
25718;DHT22;13574;52.040;5.692;2022-09-09T04:52:06;19.20;99.90
25718;DHT22;13574;52.040;5.692;2022-09-09T04:54:32;19.20;99.90
25718;DHT22;13574;52.040;5.692;2022-09-09T04:57:00;19.30;99.90
25718;DHT22;13574;52.040;5.692;2022-09-09T04:59:26;19.30;99.90
25718;DHT22;13574;52.040;5.692;2022-09-09T05:01:51;19.30;99.90
25718;DHT22;13574;52.040;5.692;2022-09-09T05:04:19;19.30;99.90
25718;DHT22;13574;52.040;5.692;2022-09-09T05:06:47;19.50;99.90
25718;DHT22;13574;52.040;5.692;2022-09-09T05:09:13;19.40;99.90
25718;DHT22;13574;52.040;5.692;2022-09-09T05:11:39;19.30;99.90
25718;DHT22;13574;52.040;5.692;2022-09-09T05:14:05;19.30;99.90
25718;DHT22;13574;52.040;5.692;2022-09-09T05:16:31;19.50;99.90
25718;DHT22;13574;52.040;5.692;2022-09-09T05:18:57;19.60;99.90
25718;DHT22;13574;52.040;5.692;2022-09-09T05:21:25;19.60;99.90
25718;DHT22;13574;52.040;5.692;2022-09-09T05:23:52;19.50;99.90
25718;DHT22;13574;52.040;5.692;2022-09-09T05:26:22;19.50;99.90
25718;DHT22;13574;52.040;5.692;2022-09-09T05:28:48;19.60;99.90
25718;DHT22;13574;52.040;5.692;2022-09-09T05:31:15;19.60;99.90
25718;DHT22;13574;52.040;5.692;2022-09-09T05:33:42;19.70;99.90
25718;DHT22;13574;52.040;5.692;2022-09-09T05:36:18;19.80;99.90
25718;DHT22;13574;52.040;5.692;2022-09-09T05:38:45;19.60;99.90
25718;DHT22;13574;52.040;5.692;2022-09-09T05:41:11;19.60;99.90
25718;DHT22;13574;52.040;5.692;2022-09-09T05:43:38;19.50;99.90
25718;DHT22;13574;52.040;5.692;2022-09-09T05:46:06;19.50;99.90
25718;DHT22;13574;52.040;5.692;2022-09-09T05:48:36;19.60;99.90
25718;DHT22;13574;52.040;5.692;2022-09-09T05:54:57;19.70;99.90
25718;DHT22;13574;52.040;5.692;2022-09-09T05:57:22;19.60;99.90
25718;DHT22;13574;52.040;5.692;2022-09-09T05:59:48;19.70;99.90
25718;DHT22;13574;52.040;5.692;2022-09-09T06:02:15;19.50;99.90
25718;DHT22;13574;52.040;5.692;2022-09-09T06:04:41;19.30;99.90
25718;DHT22;13574;52.040;5.692;2022-09-09T06:07:07;19.50;99.90
25718;DHT22;13574;52.040;5.692;2022-09-09T06:09:32;19.60;99.90
25718;DHT22;13574;52.040;5.692;2022-09-09T06:11:58;19.70;99.90
25718;DHT22;13574;52.040;5.692;2022-09-09T06:14:24;19.90;99.90
25718;DHT22;13574;52.040;5.692;2022-09-09T06:16:51;20.10;99.90
25718;DHT22;13574;52.040;5.692;2022-09-09T06:19:19;20.20;99.90
25718;DHT22;13574;52.040;5.692;2022-09-09T06:21:45;20.30;99.90
25718;DHT22;13574;52.040;5.692;2022-09-09T06:24:13;20.40;99.90
25718;DHT22;13574;52.040;5.692;2022-09-09T06:26:42;20.50;99.90
25718;DHT22;13574;52.040;5.692;2022-09-09T06:29:14;20.60;99.90
25718;DHT22;13574;52.040;5.692;2022-09-09T06:31:50;20.70;99.90
25718;DHT22;13574;52.040;5.692;2022-09-09T06:34:16;20.70;99.90
25718;DHT22;13574;52.040;5.692;2022-09-09T06:36:44;20.60;99.90
25718;DHT22;13574;52.040;5.692;2022-09-09T06:39:11;20.50;99.90
25718;DHT22;13574;52.040;5.692;2022-09-09T06:45:09;20.40;99.90
25718;DHT22;13574;52.040;5.692;2022-09-09T06:48:25;20.50;99.90
25718;DHT22;13574;52.040;5.692;2022-09-09T06:51:14;20.50;99.90
25718;DHT22;13574;52.040;5.692;2022-09-09T06:53:52;20.50;99.90
25718;DHT22;13574;52.040;5.692;2022-09-09T06:56:29;20.50;99.90
25718;DHT22;13574;52.040;5.692;2022-09-09T06:59:04;20.70;99.90
25718;DHT22;13574;52.040;5.692;2022-09-09T07:01:43;20.80;99.90
25718;DHT22;13574;52.040;5.692;2022-09-09T07:04:39;20.90;99.90
25718;DHT22;13574;52.040;5.692;2022-09-09T07:07:44;21.10;99.90
25718;DHT22;13574;52.040;5.692;2022-09-09T07:10:12;21.40;99.90
25718;DHT22;13574;52.040;5.692;2022-09-09T07:13:23;21.30;99.90
25718;DHT22;13574;52.040;5.692;2022-09-09T07:18:47;21.20;99.90
25718;DHT22;13574;52.040;5.692;2022-09-09T07:21:15;21.20;99.90
25718;DHT22;13574;52.040;5.692;2022-09-09T07:23:44;21.20;99.90
25718;DHT22;13574;52.040;5.692;2022-09-09T07:26:21;21.40;99.90
25718;DHT22;13574;52.040;5.692;2022-09-09T07:28:57;21.70;99.90
25718;DHT22;13574;52.040;5.692;2022-09-09T07:34:52;21.70;99.90
25718;DHT22;13574;52.040;5.692;2022-09-09T07:37:43;21.60;99.90
25718;DHT22;13574;52.040;5.692;2022-09-09T07:40:22;21.80;99.90
25718;DHT22;13574;52.040;5.692;2022-09-09T07:43:10;22.00;99.90
25718;DHT22;13574;52.040;5.692;2022-09-09T07:45:41;21.50;99.90
25718;DHT22;13574;52.040;5.692;2022-09-09T07:48:17;21.40;99.90
25718;DHT22;13574;52.040;5.692;2022-09-09T08:08:23;21.40;99.90
25718;DHT22;13574;52.040;5.692;2022-09-09T08:11:16;21.50;99.90
25718;DHT22;13574;52.040;5.692;2022-09-09T08:13:44;21.10;99.90
25718;DHT22;13574;52.040;5.692;2022-09-09T08:16:33;21.10;99.90
25718;DHT22;13574;52.040;5.692;2022-09-09T08:19:30;21.30;99.90
25718;DHT22;13574;52.040;5.692;2022-09-09T08:36:22;21.40;99.90
25718;DHT22;13574;52.040;5.692;2022-09-09T08:39:19;21.40;99.90
25718;DHT22;13574;52.040;5.692;2022-09-09T09:02:31;21.40;99.90
25718;DHT22;13574;52.040;5.692;2022-09-09T09:13:11;21.60;99.90
25718;DHT22;13574;52.040;5.692;2022-09-09T09:33:11;21.70;99.90
25718;DHT22;13574;52.040;5.692;2022-09-09T09:39:47;21.50;99.90
25718;DHT22;13574;52.040;5.692;2022-09-09T09:49:58;21.90;99.90
25718;DHT22;13574;52.040;5.692;2022-09-09T10:03:53;22.40;99.90
25718;DHT22;13574;52.040;5.692;2022-09-09T10:06:42;22.60;99.90
25718;DHT22;13574;52.040;5.692;2022-09-09T10:19:26;22.10;99.90
25718;DHT22;13574;52.040;5.692;2022-09-09T10:30:01;21.80;99.90
25718;DHT22;13574;52.040;5.692;2022-09-09T10:35:38;22.00;99.90
25718;DHT22;13574;52.040;5.692;2022-09-09T10:38:37;21.70;99.90
25718;DHT22;13574;52.040;5.692;2022-09-09T10:42:06;21.70;99.90
25718;DHT22;13574;52.040;5.692;2022-09-09T10:48:01;21.80;99.90
25718;DHT22;13574;52.040;5.692;2022-09-09T11:47:01;21.60;99.90
25718;DHT22;13574;52.040;5.692;2022-09-09T11:50:27;21.70;99.90
25718;DHT22;13574;52.040;5.692;2022-09-09T11:56:00;21.50;99.90
25718;DHT22;13574;52.040;5.692;2022-09-09T11:59:19;21.30;99.90
25718;DHT22;13574;52.040;5.692;2022-09-09T12:07:49;21.20;99.90
25718;DHT22;13574;52.040;5.692;2022-09-09T12:10:30;21.40;99.90
25718;DHT22;13574;52.040;5.692;2022-09-09T12:13:20;21.30;99.90
25718;DHT22;13574;52.040;5.692;2022-09-09T12:15:52;21.50;99.90
25718;DHT22;13574;52.040;5.692;2022-09-09T12:18:40;21.40;99.90
25718;DHT22;13574;52.040;5.692;2022-09-09T12:21:54;21.40;99.90
25718;DHT22;13574;52.040;5.692;2022-09-09T12:24:49;21.40;99.90
25718;DHT22;13574;52.040;5.692;2022-09-09T12:27:45;21.50;99.90
25718;DHT22;13574;52.040;5.692;2022-09-09T12:30:21;21.60;99.90
25718;DHT22;13574;52.040;5.692;2022-09-09T12:33:22;21.70;99.90
25718;DHT22;13574;52.040;5.692;2022-09-09T12:35:54;21.60;99.90
25718;DHT22;13574;52.040;5.692;2022-09-09T12:41:52;21.80;99.90
25718;DHT22;13574;52.040;5.692;2022-09-09T12:45:02;21.90;99.90
25718;DHT22;13574;52.040;5.692;2022-09-09T12:47:56;22.00;99.90
25718;DHT22;13574;52.040;5.692;2022-09-09T12:50:48;22.20;99.90
25718;DHT22;13574;52.040;5.692;2022-09-09T12:53:25;22.30;99.90
25718;DHT22;13574;52.040;5.692;2022-09-09T12:56:06;22.10;99.90
25718;DHT22;13574;52.040;5.692;2022-09-09T12:58:38;22.30;99.90
25718;DHT22;13574;52.040;5.692;2022-09-09T13:01:30;22.60;99.90
25718;DHT22;13574;52.040;5.692;2022-09-09T13:07:12;22.80;99.90
25718;DHT22;13574;52.040;5.692;2022-09-09T13:09:50;22.70;99.90
25718;DHT22;13574;52.040;5.692;2022-09-09T13:19:06;22.00;99.90
25718;DHT22;13574;52.040;5.692;2022-09-09T13:21:54;22.00;99.90
25718;DHT22;13574;52.040;5.692;2022-09-09T13:24:57;22.40;99.90
25718;DHT22;13574;52.040;5.692;2022-09-09T13:27:32;22.40;99.90
25718;DHT22;13574;52.040;5.692;2022-09-09T13:30:30;22.20;99.90
25718;DHT22;13574;52.040;5.692;2022-09-09T13:35:56;22.40;99.90
25718;DHT22;13574;52.040;5.692;2022-09-09T13:38:27;22.60;99.90
25718;DHT22;13574;52.040;5.692;2022-09-09T13:44:39;22.70;99.90
25718;DHT22;13574;52.040;5.692;2022-09-09T13:50:28;22.80;99.90
25718;DHT22;13574;52.040;5.692;2022-09-09T13:53:00;23.00;99.90
25718;DHT22;13574;52.040;5.692;2022-09-09T13:55:38;23.00;99.90
25718;DHT22;13574;52.040;5.692;2022-09-09T14:02:29;23.10;99.90
25718;DHT22;13574;52.040;5.692;2022-09-09T14:28:54;22.90;99.90
25718;DHT22;13574;52.040;5.692;2022-09-09T14:31:23;22.80;99.90
25718;DHT22;13574;52.040;5.692;2022-09-09T14:34:01;23.10;99.90
25718;DHT22;13574;52.040;5.692;2022-09-09T14:37:03;23.00;99.90
25718;DHT22;13574;52.040;5.692;2022-09-09T14:58:30;23.40;99.90
25718;DHT22;13574;52.040;5.692;2022-09-09T15:11:31;23.40;99.90
25718;DHT22;13574;52.040;5.692;2022-09-09T15:52:23;24.10;99.90
25718;DHT22;13574;52.040;5.692;2022-09-09T15:54:55;23.70;99.90
25718;DHT22;13574;52.040;5.692;2022-09-09T15:57:51;23.70;99.90
25718;DHT22;13574;52.040;5.692;2022-09-09T16:01:06;23.70;99.90
25718;DHT22;13574;52.040;5.692;2022-09-09T16:11:14;23.80;99.90
25718;DHT22;13574;52.040;5.692;2022-09-09T16:20:02;23.70;99.90
25718;DHT22;13574;52.040;5.692;2022-09-09T16:29:02;23.40;99.90
25718;DHT22;13574;52.040;5.692;2022-09-09T16:31:49;23.40;99.90
25718;DHT22;13574;52.040;5.692;2022-09-09T16:37:55;23.30;99.90
25718;DHT22;13574;52.040;5.692;2022-09-09T17:00:08;23.40;99.90
25718;DHT22;13574;52.040;5.692;2022-09-09T17:02:45;23.40;99.90
25718;DHT22;13574;52.040;5.692;2022-09-09T17:15:43;23.30;99.90
25718;DHT22;13574;52.040;5.692;2022-09-09T17:25:34;23.40;99.90
25718;DHT22;13574;52.040;5.692;2022-09-09T17:28:37;23.30;99.90
25718;DHT22;13574;52.040;5.692;2022-09-09T17:31:45;23.20;99.90
25718;DHT22;13574;52.040;5.692;2022-09-09T17:34:31;23.30;99.90
25718;DHT22;13574;52.040;5.692;2022-09-09T18:19:17;22.60;99.90
25718;DHT22;13574;52.040;5.692;2022-09-09T18:21:53;22.60;99.90
25718;DHT22;13574;52.040;5.692;2022-09-09T18:24:52;22.40;99.90
25718;DHT22;13574;52.040;5.692;2022-09-09T18:34:38;22.30;99.90
25718;DHT22;13574;52.040;5.692;2022-09-09T18:37:17;22.30;99.90
25718;DHT22;13574;52.040;5.692;2022-09-09T19:25:11;21.80;99.90
25718;DHT22;13574;52.040;5.692;2022-09-09T21:29:22;20.50;99.90
25718;DHT22;13574;52.040;5.692;2022-09-09T21:31:58;20.50;99.90
25718;DHT22;13574;52.040;5.692;2022-09-09T21:34:28;20.60;99.90
25718;DHT22;13574;52.040;5.692;2022-09-09T21:36:56;20.60;99.90
25718;DHT22;13574;52.040;5.692;2022-09-09T21:39:27;20.60;99.90
25718;DHT22;13574;52.040;5.692;2022-09-09T21:41:55;20.70;99.90
25718;DHT22;13574;52.040;5.692;2022-09-09T21:44:21;20.80;99.90
25718;DHT22;13574;52.040;5.692;2022-09-09T21:46:52;20.80;99.90
25718;DHT22;13574;52.040;5.692;2022-09-09T21:49:17;20.70;99.90
25718;DHT22;13574;52.040;5.692;2022-09-09T21:51:43;20.80;99.90
25718;DHT22;13574;52.040;5.692;2022-09-09T21:54:11;20.70;99.90
25718;DHT22;13574;52.040;5.692;2022-09-09T21:56:37;20.60;99.90
25718;DHT22;13574;52.040;5.692;2022-09-09T21:59:12;20.60;99.90
25718;DHT22;13574;52.040;5.692;2022-09-09T22:01:43;20.60;99.90
25718;DHT22;13574;52.040;5.692;2022-09-09T22:04:09;20.50;99.90
25718;DHT22;13574;52.040;5.692;2022-09-09T22:06:34;20.50;99.90
25718;DHT22;13574;52.040;5.692;2022-09-09T22:09:09;20.50;99.90
25718;DHT22;13574;52.040;5.692;2022-09-09T22:11:37;20.60;99.90
25718;DHT22;13574;52.040;5.692;2022-09-09T22:14:02;20.50;99.90
25718;DHT22;13574;52.040;5.692;2022-09-09T22:16:30;20.40;99.90
25718;DHT22;13574;52.040;5.692;2022-09-09T22:18:58;20.20;99.90
25718;DHT22;13574;52.040;5.692;2022-09-09T22:21:26;20.40;99.90
25718;DHT22;13574;52.040;5.692;2022-09-09T22:23:53;20.30;99.90
25718;DHT22;13574;52.040;5.692;2022-09-09T22:26:23;20.40;99.90
25718;DHT22;13574;52.040;5.692;2022-09-09T22:28:49;20.30;99.90
25718;DHT22;13574;52.040;5.692;2022-09-09T22:31:21;20.40;99.90
25718;DHT22;13574;52.040;5.692;2022-09-09T22:33:47;20.40;99.90
25718;DHT22;13574;52.040;5.692;2022-09-09T22:36:13;20.50;99.90
25718;DHT22;13574;52.040;5.692;2022-09-09T22:38:42;20.40;99.90
25718;DHT22;13574;52.040;5.692;2022-09-09T22:41:08;20.50;99.90
25718;DHT22;13574;52.040;5.692;2022-09-09T22:43:36;20.40;99.90
25718;DHT22;13574;52.040;5.692;2022-09-09T22:46:05;20.40;99.90
25718;DHT22;13574;52.040;5.692;2022-09-09T22:48:34;20.40;99.90
25718;DHT22;13574;52.040;5.692;2022-09-09T22:51:09;20.50;99.90
25718;DHT22;13574;52.040;5.692;2022-09-09T22:53:37;20.60;99.90
25718;DHT22;13574;52.040;5.692;2022-09-09T22:56:07;20.60;99.90
25718;DHT22;13574;52.040;5.692;2022-09-09T22:58:36;20.40;99.90
25718;DHT22;13574;52.040;5.692;2022-09-09T23:01:17;20.40;99.90
25718;DHT22;13574;52.040;5.692;2022-09-09T23:03:45;20.50;99.90
25718;DHT22;13574;52.040;5.692;2022-09-09T23:06:17;20.40;99.90
25718;DHT22;13574;52.040;5.692;2022-09-09T23:08:51;20.50;99.90
25718;DHT22;13574;52.040;5.692;2022-09-09T23:11:18;20.40;99.90
25718;DHT22;13574;52.040;5.692;2022-09-09T23:13:49;20.30;99.90
25718;DHT22;13574;52.040;5.692;2022-09-09T23:16:25;20.40;99.90
25718;DHT22;13574;52.040;5.692;2022-09-09T23:18:53;20.40;99.90
25718;DHT22;13574;52.040;5.692;2022-09-09T23:21:24;20.40;99.90
25718;DHT22;13574;52.040;5.692;2022-09-09T23:23:58;20.50;99.90
25718;DHT22;13574;52.040;5.692;2022-09-09T23:26:33;20.50;99.90
25718;DHT22;13574;52.040;5.692;2022-09-09T23:29:05;20.60;99.90
25718;DHT22;13574;52.040;5.692;2022-09-09T23:31:36;20.70;99.90
25718;DHT22;13574;52.040;5.692;2022-09-09T23:34:03;20.70;99.90
25718;DHT22;13574;52.040;5.692;2022-09-09T23:36:29;20.80;99.90
25718;DHT22;13574;52.040;5.692;2022-09-09T23:39:01;20.70;99.90
25718;DHT22;13574;52.040;5.692;2022-09-09T23:41:28;20.80;99.90
25718;DHT22;13574;52.040;5.692;2022-09-09T23:43:55;20.70;99.90
25718;DHT22;13574;52.040;5.692;2022-09-09T23:46:25;20.70;99.90
25718;DHT22;13574;52.040;5.692;2022-09-09T23:48:57;20.70;99.90
25718;DHT22;13574;52.040;5.692;2022-09-09T23:51:30;20.70;99.90
25718;DHT22;13574;52.040;5.692;2022-09-09T23:53:58;20.70;99.90
25718;DHT22;13574;52.040;5.692;2022-09-09T23:56:30;20.70;99.90
25718;DHT22;13574;52.040;5.692;2022-09-09T23:58:57;20.70;99.90
